sensor_id;sensor_type;location;lat;lon;timestamp;P1;durP1;ratioP1;P2;durP2;ratioP2
11187;SDS011;5650;52.700;7.306;2024-02-28T00:01:47;68.90;;;37.85;;
11187;SDS011;5650;52.700;7.306;2024-02-28T00:04:15;64.63;;;37.45;;
11187;SDS011;5650;52.700;7.306;2024-02-28T00:06:45;62.90;;;35.38;;
11187;SDS011;5650;52.700;7.306;2024-02-28T00:09:14;59.42;;;34.40;;
11187;SDS011;5650;52.700;7.306;2024-02-28T00:11:42;54.03;;;31.92;;
11187;SDS011;5650;52.700;7.306;2024-02-28T00:14:17;59.05;;;33.63;;
11187;SDS011;5650;52.700;7.306;2024-02-28T00:16:44;57.10;;;34.08;;
11187;SDS011;5650;52.700;7.306;2024-02-28T00:19:13;55.42;;;33.17;;
11187;SDS011;5650;52.700;7.306;2024-02-28T00:21:42;58.80;;;32.45;;
11187;SDS011;5650;52.700;7.306;2024-02-28T00:24:09;53.30;;;33.50;;
11187;SDS011;5650;52.700;7.306;2024-02-28T00:26:41;57.20;;;32.95;;
11187;SDS011;5650;52.700;7.306;2024-02-28T00:29:09;54.78;;;30.45;;
11187;SDS011;5650;52.700;7.306;2024-02-28T00:31:46;59.15;;;34.17;;
11187;SDS011;5650;52.700;7.306;2024-02-28T00:34:16;55.35;;;32.47;;
11187;SDS011;5650;52.700;7.306;2024-02-28T00:36:43;57.03;;;33.17;;
11187;SDS011;5650;52.700;7.306;2024-02-28T00:39:10;61.83;;;34.25;;
11187;SDS011;5650;52.700;7.306;2024-02-28T00:41:37;57.85;;;33.38;;
11187;SDS011;5650;52.700;7.306;2024-02-28T00:44:06;63.75;;;35.67;;
11187;SDS011;5650;52.700;7.306;2024-02-28T00:46:36;57.40;;;33.53;;
11187;SDS011;5650;52.700;7.306;2024-02-28T00:49:08;59.03;;;34.13;;
11187;SDS011;5650;52.700;7.306;2024-02-28T00:51:38;61.35;;;34.95;;
11187;SDS011;5650;52.700;7.306;2024-02-28T00:54:08;54.63;;;31.83;;
11187;SDS011;5650;52.700;7.306;2024-02-28T00:56:38;63.22;;;33.20;;
11187;SDS011;5650;52.700;7.306;2024-02-28T00:59:16;56.45;;;33.70;;
11187;SDS011;5650;52.700;7.306;2024-02-28T01:01:43;57.10;;;31.50;;
11187;SDS011;5650;52.700;7.306;2024-02-28T01:04:10;59.05;;;28.25;;
11187;SDS011;5650;52.700;7.306;2024-02-28T01:06:40;44.08;;;26.45;;
11187;SDS011;5650;52.700;7.306;2024-02-28T01:09:19;52.72;;;29.23;;
11187;SDS011;5650;52.700;7.306;2024-02-28T01:11:47;54.38;;;27.33;;
11187;SDS011;5650;52.700;7.306;2024-02-28T01:14:19;48.53;;;26.63;;
11187;SDS011;5650;52.700;7.306;2024-02-28T01:16:47;51.28;;;29.00;;
11187;SDS011;5650;52.700;7.306;2024-02-28T01:19:15;49.53;;;27.95;;
11187;SDS011;5650;52.700;7.306;2024-02-28T01:21:42;47.88;;;29.10;;
11187;SDS011;5650;52.700;7.306;2024-02-28T01:24:09;52.72;;;29.75;;
11187;SDS011;5650;52.700;7.306;2024-02-28T01:26:37;52.78;;;30.05;;
11187;SDS011;5650;52.700;7.306;2024-02-28T01:29:06;49.55;;;28.83;;
11187;SDS011;5650;52.700;7.306;2024-02-28T01:31:35;43.78;;;25.63;;
11187;SDS011;5650;52.700;7.306;2024-02-28T01:34:05;43.08;;;25.38;;
11187;SDS011;5650;52.700;7.306;2024-02-28T01:36:37;47.13;;;25.60;;
11187;SDS011;5650;52.700;7.306;2024-02-28T01:39:04;42.45;;;24.27;;
11187;SDS011;5650;52.700;7.306;2024-02-28T01:41:34;49.45;;;25.02;;
11187;SDS011;5650;52.700;7.306;2024-02-28T01:44:08;43.50;;;25.35;;
11187;SDS011;5650;52.700;7.306;2024-02-28T01:46:46;50.15;;;25.85;;
11187;SDS011;5650;52.700;7.306;2024-02-28T01:49:13;44.60;;;25.95;;
11187;SDS011;5650;52.700;7.306;2024-02-28T01:51:42;39.00;;;24.70;;
11187;SDS011;5650;52.700;7.306;2024-02-28T01:54:11;42.17;;;25.17;;
11187;SDS011;5650;52.700;7.306;2024-02-28T01:56:41;60.95;;;25.85;;
11187;SDS011;5650;52.700;7.306;2024-02-28T01:59:09;45.13;;;25.55;;
11187;SDS011;5650;52.700;7.306;2024-02-28T02:01:42;42.47;;;24.98;;
11187;SDS011;5650;52.700;7.306;2024-02-28T02:04:13;50.00;;;26.30;;
11187;SDS011;5650;52.700;7.306;2024-02-28T02:06:44;44.47;;;25.38;;
11187;SDS011;5650;52.700;7.306;2024-02-28T02:09:12;42.95;;;25.42;;
11187;SDS011;5650;52.700;7.306;2024-02-28T02:11:42;45.17;;;24.98;;
11187;SDS011;5650;52.700;7.306;2024-02-28T02:14:15;55.83;;;23.85;;
11187;SDS011;5650;52.700;7.306;2024-02-28T02:16:44;53.08;;;25.38;;
11187;SDS011;5650;52.700;7.306;2024-02-28T02:19:16;57.50;;;25.33;;
11187;SDS011;5650;52.700;7.306;2024-02-28T02:21:48;40.05;;;24.52;;
11187;SDS011;5650;52.700;7.306;2024-02-28T02:24:23;44.45;;;24.33;;
11187;SDS011;5650;52.700;7.306;2024-02-28T02:26:54;40.50;;;24.65;;
11187;SDS011;5650;52.700;7.306;2024-02-28T02:32:03;53.30;;;23.95;;
11187;SDS011;5650;52.700;7.306;2024-02-28T02:34:33;39.53;;;24.17;;
11187;SDS011;5650;52.700;7.306;2024-02-28T02:37:12;39.80;;;24.48;;
11187;SDS011;5650;52.700;7.306;2024-02-28T02:39:43;57.70;;;21.65;;
11187;SDS011;5650;52.700;7.306;2024-02-28T02:42:10;45.70;;;22.95;;
11187;SDS011;5650;52.700;7.306;2024-02-28T02:44:38;35.53;;;22.92;;
11187;SDS011;5650;52.700;7.306;2024-02-28T02:47:06;69.15;;;23.90;;
11187;SDS011;5650;52.700;7.306;2024-02-28T02:49:35;39.30;;;23.05;;
11187;SDS011;5650;52.700;7.306;2024-02-28T02:52:06;40.30;;;23.55;;
11187;SDS011;5650;52.700;7.306;2024-02-28T02:54:33;50.10;;;22.88;;
11187;SDS011;5650;52.700;7.306;2024-02-28T02:57:11;39.03;;;24.58;;
11187;SDS011;5650;52.700;7.306;2024-02-28T02:59:41;48.00;;;24.35;;
11187;SDS011;5650;52.700;7.306;2024-02-28T03:02:14;40.58;;;22.40;;
11187;SDS011;5650;52.700;7.306;2024-02-28T03:04:44;40.67;;;22.67;;
11187;SDS011;5650;52.700;7.306;2024-02-28T03:07:18;51.42;;;24.05;;
11187;SDS011;5650;52.700;7.306;2024-02-28T03:09:52;38.10;;;23.70;;
11187;SDS011;5650;52.700;7.306;2024-02-28T03:12:19;52.15;;;26.48;;
11187;SDS011;5650;52.700;7.306;2024-02-28T03:14:47;44.47;;;25.30;;
11187;SDS011;5650;52.700;7.306;2024-02-28T03:17:17;50.72;;;26.65;;
11187;SDS011;5650;52.700;7.306;2024-02-28T03:19:43;64.22;;;25.75;;
11187;SDS011;5650;52.700;7.306;2024-02-28T03:22:12;76.85;;;26.52;;
11187;SDS011;5650;52.700;7.306;2024-02-28T03:24:40;77.68;;;26.15;;
11187;SDS011;5650;52.700;7.306;2024-02-28T03:27:12;56.22;;;26.25;;
11187;SDS011;5650;52.700;7.306;2024-02-28T03:29:39;62.40;;;27.30;;
11187;SDS011;5650;52.700;7.306;2024-02-28T03:32:09;64.88;;;26.20;;
11187;SDS011;5650;52.700;7.306;2024-02-28T03:34:39;59.45;;;27.27;;
11187;SDS011;5650;52.700;7.306;2024-02-28T03:37:09;39.08;;;25.73;;
11187;SDS011;5650;52.700;7.306;2024-02-28T03:39:36;48.22;;;27.08;;
11187;SDS011;5650;52.700;7.306;2024-02-28T03:42:17;47.05;;;26.13;;
11187;SDS011;5650;52.700;7.306;2024-02-28T03:44:44;42.38;;;26.48;;
11187;SDS011;5650;52.700;7.306;2024-02-28T03:47:12;57.67;;;26.95;;
11187;SDS011;5650;52.700;7.306;2024-02-28T03:49:42;40.22;;;27.02;;
11187;SDS011;5650;52.700;7.306;2024-02-28T03:52:15;44.13;;;27.17;;
11187;SDS011;5650;52.700;7.306;2024-02-28T03:54:42;43.92;;;26.95;;
11187;SDS011;5650;52.700;7.306;2024-02-28T03:57:09;43.10;;;27.90;;
11187;SDS011;5650;52.700;7.306;2024-02-28T03:59:44;44.60;;;27.52;;
11187;SDS011;5650;52.700;7.306;2024-02-28T04:02:11;40.45;;;25.60;;
11187;SDS011;5650;52.700;7.306;2024-02-28T04:04:38;38.35;;;26.33;;
11187;SDS011;5650;52.700;7.306;2024-02-28T04:07:08;51.78;;;25.30;;
11187;SDS011;5650;52.700;7.306;2024-02-28T04:09:35;44.15;;;24.35;;
11187;SDS011;5650;52.700;7.306;2024-02-28T04:12:03;33.97;;;23.35;;
11187;SDS011;5650;52.700;7.306;2024-02-28T04:14:30;41.28;;;25.15;;
11187;SDS011;5650;52.700;7.306;2024-02-28T04:17:03;39.20;;;23.83;;
11187;SDS011;5650;52.700;7.306;2024-02-28T04:19:32;49.83;;;24.33;;
11187;SDS011;5650;52.700;7.306;2024-02-28T04:22:02;41.10;;;23.35;;
11187;SDS011;5650;52.700;7.306;2024-02-28T04:24:35;40.08;;;24.83;;
11187;SDS011;5650;52.700;7.306;2024-02-28T04:27:05;34.78;;;23.77;;
11187;SDS011;5650;52.700;7.306;2024-02-28T04:29:34;35.55;;;23.88;;
11187;SDS011;5650;52.700;7.306;2024-02-28T04:32:03;48.08;;;23.58;;
11187;SDS011;5650;52.700;7.306;2024-02-28T04:34:31;35.65;;;23.35;;
11187;SDS011;5650;52.700;7.306;2024-02-28T04:36:58;37.03;;;24.50;;
11187;SDS011;5650;52.700;7.306;2024-02-28T04:39:25;38.25;;;24.23;;
11187;SDS011;5650;52.700;7.306;2024-02-28T04:41:55;37.65;;;24.38;;
11187;SDS011;5650;52.700;7.306;2024-02-28T04:44:26;39.58;;;25.65;;
11187;SDS011;5650;52.700;7.306;2024-02-28T04:46:59;52.03;;;26.00;;
11187;SDS011;5650;52.700;7.306;2024-02-28T04:49:29;47.38;;;26.00;;
11187;SDS011;5650;52.700;7.306;2024-02-28T04:51:56;60.38;;;25.13;;
11187;SDS011;5650;52.700;7.306;2024-02-28T04:54:26;41.60;;;25.25;;
11187;SDS011;5650;52.700;7.306;2024-02-28T04:56:53;42.40;;;24.02;;
11187;SDS011;5650;52.700;7.306;2024-02-28T04:59:20;50.03;;;23.00;;
11187;SDS011;5650;52.700;7.306;2024-02-28T05:01:47;46.40;;;24.38;;
11187;SDS011;5650;52.700;7.306;2024-02-28T05:04:17;42.92;;;24.45;;
11187;SDS011;5650;52.700;7.306;2024-02-28T05:06:46;45.05;;;27.23;;
11187;SDS011;5650;52.700;7.306;2024-02-28T05:09:13;35.85;;;24.45;;
11187;SDS011;5650;52.700;7.306;2024-02-28T05:11:40;36.90;;;25.10;;
11187;SDS011;5650;52.700;7.306;2024-02-28T05:14:08;39.90;;;25.73;;
11187;SDS011;5650;52.700;7.306;2024-02-28T05:16:36;35.33;;;24.15;;
11187;SDS011;5650;52.700;7.306;2024-02-28T05:19:06;40.58;;;24.17;;
11187;SDS011;5650;52.700;7.306;2024-02-28T05:21:39;37.13;;;23.75;;
11187;SDS011;5650;52.700;7.306;2024-02-28T05:24:08;36.17;;;23.60;;
11187;SDS011;5650;52.700;7.306;2024-02-28T05:26:36;36.92;;;25.13;;
11187;SDS011;5650;52.700;7.306;2024-02-28T05:29:04;35.85;;;24.08;;
11187;SDS011;5650;52.700;7.306;2024-02-28T05:31:33;35.08;;;23.58;;
11187;SDS011;5650;52.700;7.306;2024-02-28T05:34:01;34.95;;;23.08;;
11187;SDS011;5650;52.700;7.306;2024-02-28T05:36:29;38.85;;;23.55;;
11187;SDS011;5650;52.700;7.306;2024-02-28T05:38:57;30.67;;;22.08;;
11187;SDS011;5650;52.700;7.306;2024-02-28T05:41:27;32.08;;;22.60;;
11187;SDS011;5650;52.700;7.306;2024-02-28T05:43:54;31.58;;;22.58;;
11187;SDS011;5650;52.700;7.306;2024-02-28T05:46:22;38.95;;;23.00;;
11187;SDS011;5650;52.700;7.306;2024-02-28T05:48:49;36.53;;;24.25;;
11187;SDS011;5650;52.700;7.306;2024-02-28T05:51:16;34.47;;;23.60;;
11187;SDS011;5650;52.700;7.306;2024-02-28T05:53:43;36.08;;;24.13;;
11187;SDS011;5650;52.700;7.306;2024-02-28T05:56:11;35.05;;;24.75;;
11187;SDS011;5650;52.700;7.306;2024-02-28T05:58:42;39.95;;;25.48;;
11187;SDS011;5650;52.700;7.306;2024-02-28T06:01:10;37.83;;;25.25;;
11187;SDS011;5650;52.700;7.306;2024-02-28T06:03:37;35.28;;;24.42;;
11187;SDS011;5650;52.700;7.306;2024-02-28T06:06:04;37.15;;;25.08;;
11187;SDS011;5650;52.700;7.306;2024-02-28T06:08:32;37.90;;;24.50;;
11187;SDS011;5650;52.700;7.306;2024-02-28T06:11:00;50.17;;;23.63;;
11187;SDS011;5650;52.700;7.306;2024-02-28T06:13:27;39.33;;;25.35;;
11187;SDS011;5650;52.700;7.306;2024-02-28T06:15:56;35.92;;;24.45;;
11187;SDS011;5650;52.700;7.306;2024-02-28T06:18:24;42.50;;;26.02;;
11187;SDS011;5650;52.700;7.306;2024-02-28T06:20:52;38.25;;;25.73;;
11187;SDS011;5650;52.700;7.306;2024-02-28T06:23:26;38.13;;;24.80;;
11187;SDS011;5650;52.700;7.306;2024-02-28T06:25:54;39.78;;;25.90;;
11187;SDS011;5650;52.700;7.306;2024-02-28T06:28:39;39.38;;;25.15;;
11187;SDS011;5650;52.700;7.306;2024-02-28T06:31:12;43.78;;;26.67;;
11187;SDS011;5650;52.700;7.306;2024-02-28T06:33:41;39.67;;;26.42;;
11187;SDS011;5650;52.700;7.306;2024-02-28T06:36:08;39.17;;;26.40;;
11187;SDS011;5650;52.700;7.306;2024-02-28T06:38:38;43.92;;;26.67;;
11187;SDS011;5650;52.700;7.306;2024-02-28T06:41:05;42.78;;;27.08;;
11187;SDS011;5650;52.700;7.306;2024-02-28T06:43:33;46.80;;;28.02;;
11187;SDS011;5650;52.700;7.306;2024-02-28T06:46:03;46.03;;;27.92;;
11187;SDS011;5650;52.700;7.306;2024-02-28T06:48:38;47.95;;;29.40;;
11187;SDS011;5650;52.700;7.306;2024-02-28T06:51:05;46.40;;;28.98;;
11187;SDS011;5650;52.700;7.306;2024-02-28T06:53:32;48.22;;;29.17;;
11187;SDS011;5650;52.700;7.306;2024-02-28T06:56:02;46.53;;;28.55;;
11187;SDS011;5650;52.700;7.306;2024-02-28T06:58:33;46.50;;;27.38;;
11187;SDS011;5650;52.700;7.306;2024-02-28T07:01:06;50.15;;;29.70;;
11187;SDS011;5650;52.700;7.306;2024-02-28T07:03:33;46.03;;;29.05;;
11187;SDS011;5650;52.700;7.306;2024-02-28T07:06:18;49.95;;;29.17;;
11187;SDS011;5650;52.700;7.306;2024-02-28T07:08:48;46.10;;;28.17;;
11187;SDS011;5650;52.700;7.306;2024-02-28T07:11:18;47.05;;;29.13;;
11187;SDS011;5650;52.700;7.306;2024-02-28T07:13:49;45.13;;;26.95;;
11187;SDS011;5650;52.700;7.306;2024-02-28T07:16:17;46.88;;;28.10;;
11187;SDS011;5650;52.700;7.306;2024-02-28T07:18:44;50.30;;;28.88;;
11187;SDS011;5650;52.700;7.306;2024-02-28T07:21:19;51.58;;;29.88;;
11187;SDS011;5650;52.700;7.306;2024-02-28T07:23:52;51.20;;;30.27;;
11187;SDS011;5650;52.700;7.306;2024-02-28T07:26:19;49.17;;;28.55;;
11187;SDS011;5650;52.700;7.306;2024-02-28T07:28:46;52.60;;;31.00;;
11187;SDS011;5650;52.700;7.306;2024-02-28T07:31:18;50.45;;;29.63;;
11187;SDS011;5650;52.700;7.306;2024-02-28T07:33:45;47.60;;;28.65;;
11187;SDS011;5650;52.700;7.306;2024-02-28T07:36:12;51.10;;;29.75;;
11187;SDS011;5650;52.700;7.306;2024-02-28T07:38:44;47.08;;;29.17;;
11187;SDS011;5650;52.700;7.306;2024-02-28T07:41:11;46.20;;;28.52;;
11187;SDS011;5650;52.700;7.306;2024-02-28T07:43:43;44.75;;;27.17;;
11187;SDS011;5650;52.700;7.306;2024-02-28T07:46:14;43.90;;;26.67;;
11187;SDS011;5650;52.700;7.306;2024-02-28T07:48:41;47.60;;;29.42;;
11187;SDS011;5650;52.700;7.306;2024-02-28T07:51:08;47.58;;;27.48;;
11187;SDS011;5650;52.700;7.306;2024-02-28T07:53:36;45.53;;;27.30;;
11187;SDS011;5650;52.700;7.306;2024-02-28T07:56:08;42.42;;;27.15;;
11187;SDS011;5650;52.700;7.306;2024-02-28T07:58:50;42.28;;;27.15;;
11187;SDS011;5650;52.700;7.306;2024-02-28T08:01:18;44.45;;;27.48;;
11187;SDS011;5650;52.700;7.306;2024-02-28T08:03:47;44.10;;;27.08;;
11187;SDS011;5650;52.700;7.306;2024-02-28T08:06:14;38.60;;;25.15;;
11187;SDS011;5650;52.700;7.306;2024-02-28T08:08:43;40.13;;;26.55;;
11187;SDS011;5650;52.700;7.306;2024-02-28T08:11:13;40.15;;;26.17;;
11187;SDS011;5650;52.700;7.306;2024-02-28T08:13:40;42.10;;;26.88;;
11187;SDS011;5650;52.700;7.306;2024-02-28T08:16:10;42.00;;;27.33;;
11187;SDS011;5650;52.700;7.306;2024-02-28T08:18:37;37.45;;;24.63;;
11187;SDS011;5650;52.700;7.306;2024-02-28T08:21:10;44.40;;;27.50;;
11187;SDS011;5650;52.700;7.306;2024-02-28T08:23:41;39.90;;;26.55;;
11187;SDS011;5650;52.700;7.306;2024-02-28T08:26:15;38.72;;;25.50;;
11187;SDS011;5650;52.700;7.306;2024-02-28T08:28:42;39.28;;;25.58;;
11187;SDS011;5650;52.700;7.306;2024-02-28T08:31:09;40.33;;;26.42;;
11187;SDS011;5650;52.700;7.306;2024-02-28T08:33:37;39.90;;;25.38;;
11187;SDS011;5650;52.700;7.306;2024-02-28T08:36:04;38.88;;;25.48;;
11187;SDS011;5650;52.700;7.306;2024-02-28T08:38:32;38.60;;;25.45;;
11187;SDS011;5650;52.700;7.306;2024-02-28T08:40:59;39.42;;;25.08;;
11187;SDS011;5650;52.700;7.306;2024-02-28T08:43:28;40.33;;;24.85;;
11187;SDS011;5650;52.700;7.306;2024-02-28T08:45:55;35.70;;;23.70;;
11187;SDS011;5650;52.700;7.306;2024-02-28T08:48:32;36.80;;;24.65;;
11187;SDS011;5650;52.700;7.306;2024-02-28T08:51:05;37.97;;;24.08;;
11187;SDS011;5650;52.700;7.306;2024-02-28T08:53:33;35.85;;;24.13;;
11187;SDS011;5650;52.700;7.306;2024-02-28T08:56:00;36.10;;;23.83;;
11187;SDS011;5650;52.700;7.306;2024-02-28T08:58:32;40.53;;;25.25;;
11187;SDS011;5650;52.700;7.306;2024-02-28T09:00:59;38.45;;;24.95;;
11187;SDS011;5650;52.700;7.306;2024-02-28T09:03:37;32.78;;;22.95;;
11187;SDS011;5650;52.700;7.306;2024-02-28T09:06:04;37.78;;;23.73;;
11187;SDS011;5650;52.700;7.306;2024-02-28T09:11:26;33.08;;;22.92;;
11187;SDS011;5650;52.700;7.306;2024-02-28T09:14:07;34.63;;;24.27;;
11187;SDS011;5650;52.700;7.306;2024-02-28T09:16:34;34.53;;;23.67;;
11187;SDS011;5650;52.700;7.306;2024-02-28T09:19:02;33.75;;;23.45;;
11187;SDS011;5650;52.700;7.306;2024-02-28T09:21:30;40.25;;;25.75;;
11187;SDS011;5650;52.700;7.306;2024-02-28T09:24:00;35.67;;;24.75;;
11187;SDS011;5650;52.700;7.306;2024-02-28T09:26:27;34.72;;;23.85;;
11187;SDS011;5650;52.700;7.306;2024-02-28T09:28:57;39.85;;;25.45;;
11187;SDS011;5650;52.700;7.306;2024-02-28T09:31:26;38.10;;;26.42;;
11187;SDS011;5650;52.700;7.306;2024-02-28T09:34:02;36.53;;;25.25;;
11187;SDS011;5650;52.700;7.306;2024-02-28T09:36:39;36.30;;;25.38;;
11187;SDS011;5650;52.700;7.306;2024-02-28T09:39:13;39.45;;;25.70;;
11187;SDS011;5650;52.700;7.306;2024-02-28T09:41:41;34.97;;;24.27;;
11187;SDS011;5650;52.700;7.306;2024-02-28T09:44:08;39.65;;;27.08;;
11187;SDS011;5650;52.700;7.306;2024-02-28T09:46:40;34.85;;;25.25;;
11187;SDS011;5650;52.700;7.306;2024-02-28T09:49:07;39.95;;;26.42;;
11187;SDS011;5650;52.700;7.306;2024-02-28T09:51:36;39.45;;;25.77;;
11187;SDS011;5650;52.700;7.306;2024-02-28T09:54:04;39.15;;;25.35;;
11187;SDS011;5650;52.700;7.306;2024-02-28T09:56:31;38.22;;;25.88;;
11187;SDS011;5650;52.700;7.306;2024-02-28T09:59:00;40.10;;;26.08;;
11187;SDS011;5650;52.700;7.306;2024-02-28T10:01:29;38.55;;;25.35;;
11187;SDS011;5650;52.700;7.306;2024-02-28T10:03:58;33.05;;;23.40;;
11187;SDS011;5650;52.700;7.306;2024-02-28T10:06:27;38.30;;;26.20;;
11187;SDS011;5650;52.700;7.306;2024-02-28T10:08:55;36.83;;;24.75;;
11187;SDS011;5650;52.700;7.306;2024-02-28T10:11:25;35.70;;;23.85;;
11187;SDS011;5650;52.700;7.306;2024-02-28T10:13:52;37.75;;;24.80;;
11187;SDS011;5650;52.700;7.306;2024-02-28T10:16:20;35.72;;;24.95;;
11187;SDS011;5650;52.700;7.306;2024-02-28T10:18:48;37.28;;;23.95;;
11187;SDS011;5650;52.700;7.306;2024-02-28T10:21:19;37.13;;;25.13;;
11187;SDS011;5650;52.700;7.306;2024-02-28T10:23:47;34.70;;;24.40;;
11187;SDS011;5650;52.700;7.306;2024-02-28T10:26:21;37.40;;;24.60;;
11187;SDS011;5650;52.700;7.306;2024-02-28T10:28:48;35.50;;;24.17;;
11187;SDS011;5650;52.700;7.306;2024-02-28T10:31:18;39.10;;;25.05;;
11187;SDS011;5650;52.700;7.306;2024-02-28T10:33:47;39.53;;;25.08;;
11187;SDS011;5650;52.700;7.306;2024-02-28T10:36:15;35.22;;;25.27;;
11187;SDS011;5650;52.700;7.306;2024-02-28T10:38:47;34.25;;;23.40;;
11187;SDS011;5650;52.700;7.306;2024-02-28T10:41:15;34.90;;;24.60;;
11187;SDS011;5650;52.700;7.306;2024-02-28T10:43:43;34.30;;;24.70;;
11187;SDS011;5650;52.700;7.306;2024-02-28T10:46:10;35.17;;;25.40;;
11187;SDS011;5650;52.700;7.306;2024-02-28T10:48:42;40.55;;;25.20;;
11187;SDS011;5650;52.700;7.306;2024-02-28T10:51:09;35.63;;;25.73;;
11187;SDS011;5650;52.700;7.306;2024-02-28T10:53:41;36.95;;;25.42;;
11187;SDS011;5650;52.700;7.306;2024-02-28T10:56:20;32.33;;;24.02;;
11187;SDS011;5650;52.700;7.306;2024-02-28T10:58:49;40.55;;;26.20;;
11187;SDS011;5650;52.700;7.306;2024-02-28T11:01:18;34.55;;;25.80;;
11187;SDS011;5650;52.700;7.306;2024-02-28T11:03:46;37.03;;;26.02;;
11187;SDS011;5650;52.700;7.306;2024-02-28T11:06:21;36.75;;;25.00;;
11187;SDS011;5650;52.700;7.306;2024-02-28T11:08:52;34.30;;;23.67;;
11187;SDS011;5650;52.700;7.306;2024-02-28T11:11:24;33.00;;;24.63;;
11187;SDS011;5650;52.700;7.306;2024-02-28T11:13:56;37.08;;;25.63;;
11187;SDS011;5650;52.700;7.306;2024-02-28T11:16:27;35.05;;;24.48;;
11187;SDS011;5650;52.700;7.306;2024-02-28T11:18:58;36.47;;;25.10;;
11187;SDS011;5650;52.700;7.306;2024-02-28T11:21:26;36.95;;;24.92;;
11187;SDS011;5650;52.700;7.306;2024-02-28T11:23:56;37.70;;;26.00;;
11187;SDS011;5650;52.700;7.306;2024-02-28T11:26:26;39.00;;;25.13;;
11187;SDS011;5650;52.700;7.306;2024-02-28T11:28:56;38.40;;;24.05;;
11187;SDS011;5650;52.700;7.306;2024-02-28T11:31:23;32.88;;;24.20;;
11187;SDS011;5650;52.700;7.306;2024-02-28T11:33:51;35.35;;;25.23;;
11187;SDS011;5650;52.700;7.306;2024-02-28T11:36:18;34.92;;;24.27;;
11187;SDS011;5650;52.700;7.306;2024-02-28T11:38:48;35.05;;;23.35;;
11187;SDS011;5650;52.700;7.306;2024-02-28T11:41:30;34.22;;;23.88;;
11187;SDS011;5650;52.700;7.306;2024-02-28T11:43:57;35.78;;;23.27;;
11187;SDS011;5650;52.700;7.306;2024-02-28T11:46:29;35.38;;;26.25;;
11187;SDS011;5650;52.700;7.306;2024-02-28T11:48:57;36.08;;;25.83;;
11187;SDS011;5650;52.700;7.306;2024-02-28T11:51:24;36.47;;;25.35;;
11187;SDS011;5650;52.700;7.306;2024-02-28T11:53:51;36.92;;;24.77;;
11187;SDS011;5650;52.700;7.306;2024-02-28T11:56:18;34.25;;;24.33;;
11187;SDS011;5650;52.700;7.306;2024-02-28T11:58:51;30.80;;;22.70;;
11187;SDS011;5650;52.700;7.306;2024-02-28T12:01:19;28.75;;;23.08;;
11187;SDS011;5650;52.700;7.306;2024-02-28T12:03:46;38.03;;;24.92;;
11187;SDS011;5650;52.700;7.306;2024-02-28T12:06:13;33.58;;;23.85;;
11187;SDS011;5650;52.700;7.306;2024-02-28T12:08:40;32.75;;;23.98;;
11187;SDS011;5650;52.700;7.306;2024-02-28T12:11:07;34.03;;;23.88;;
11187;SDS011;5650;52.700;7.306;2024-02-28T12:13:36;33.20;;;23.17;;
11187;SDS011;5650;52.700;7.306;2024-02-28T12:16:05;32.17;;;24.33;;
11187;SDS011;5650;52.700;7.306;2024-02-28T12:18:34;32.53;;;25.08;;
11187;SDS011;5650;52.700;7.306;2024-02-28T12:21:01;33.00;;;23.52;;
11187;SDS011;5650;52.700;7.306;2024-02-28T12:23:29;33.30;;;23.75;;
11187;SDS011;5650;52.700;7.306;2024-02-28T12:25:56;36.70;;;24.65;;
11187;SDS011;5650;52.700;7.306;2024-02-28T12:28:23;35.10;;;23.85;;
11187;SDS011;5650;52.700;7.306;2024-02-28T12:30:50;30.52;;;23.30;;
11187;SDS011;5650;52.700;7.306;2024-02-28T12:33:21;32.38;;;24.13;;
11187;SDS011;5650;52.700;7.306;2024-02-28T12:35:48;31.35;;;23.45;;
11187;SDS011;5650;52.700;7.306;2024-02-28T12:38:16;27.45;;;22.30;;
11187;SDS011;5650;52.700;7.306;2024-02-28T12:40:43;28.77;;;22.15;;
11187;SDS011;5650;52.700;7.306;2024-02-28T12:43:13;32.38;;;22.08;;
11187;SDS011;5650;52.700;7.306;2024-02-28T12:45:43;33.22;;;24.60;;
11187;SDS011;5650;52.700;7.306;2024-02-28T12:48:14;35.72;;;22.60;;
11187;SDS011;5650;52.700;7.306;2024-02-28T12:50:42;34.50;;;22.88;;
11187;SDS011;5650;52.700;7.306;2024-02-28T12:53:09;31.20;;;22.70;;
11187;SDS011;5650;52.700;7.306;2024-02-28T12:55:44;30.33;;;23.00;;
11187;SDS011;5650;52.700;7.306;2024-02-28T12:58:20;30.40;;;22.70;;
11187;SDS011;5650;52.700;7.306;2024-02-28T13:00:51;31.42;;;23.50;;
11187;SDS011;5650;52.700;7.306;2024-02-28T13:03:18;28.20;;;22.52;;
11187;SDS011;5650;52.700;7.306;2024-02-28T13:05:47;30.42;;;22.45;;
11187;SDS011;5650;52.700;7.306;2024-02-28T13:08:14;30.67;;;22.13;;
11187;SDS011;5650;52.700;7.306;2024-02-28T13:10:41;30.33;;;22.30;;
11187;SDS011;5650;52.700;7.306;2024-02-28T13:13:11;25.65;;;20.85;;
11187;SDS011;5650;52.700;7.306;2024-02-28T13:15:39;28.63;;;22.85;;
11187;SDS011;5650;52.700;7.306;2024-02-28T13:18:12;27.63;;;21.50;;
11187;SDS011;5650;52.700;7.306;2024-02-28T13:20:40;29.92;;;22.13;;
11187;SDS011;5650;52.700;7.306;2024-02-28T13:23:16;28.10;;;21.30;;
11187;SDS011;5650;52.700;7.306;2024-02-28T13:25:43;29.98;;;21.48;;
11187;SDS011;5650;52.700;7.306;2024-02-28T13:28:16;31.60;;;21.58;;
11187;SDS011;5650;52.700;7.306;2024-02-28T13:30:47;26.52;;;20.45;;
11187;SDS011;5650;52.700;7.306;2024-02-28T13:33:17;28.92;;;21.08;;
11187;SDS011;5650;52.700;7.306;2024-02-28T13:35:45;25.27;;;19.75;;
11187;SDS011;5650;52.700;7.306;2024-02-28T13:38:13;25.10;;;20.50;;
11187;SDS011;5650;52.700;7.306;2024-02-28T13:40:43;26.83;;;20.48;;
11187;SDS011;5650;52.700;7.306;2024-02-28T13:43:14;26.20;;;20.33;;
11187;SDS011;5650;52.700;7.306;2024-02-28T13:45:41;26.63;;;20.30;;
11187;SDS011;5650;52.700;7.306;2024-02-28T13:48:15;25.48;;;19.98;;
11187;SDS011;5650;52.700;7.306;2024-02-28T13:50:46;28.00;;;19.13;;
11187;SDS011;5650;52.700;7.306;2024-02-28T13:53:21;27.98;;;20.02;;
11187;SDS011;5650;52.700;7.306;2024-02-28T13:55:49;30.38;;;19.55;;
11187;SDS011;5650;52.700;7.306;2024-02-28T13:58:17;25.40;;;19.80;;
11187;SDS011;5650;52.700;7.306;2024-02-28T14:00:45;26.23;;;20.85;;
11187;SDS011;5650;52.700;7.306;2024-02-28T14:03:13;31.25;;;20.65;;
11187;SDS011;5650;52.700;7.306;2024-02-28T14:05:44;33.40;;;21.85;;
11187;SDS011;5650;52.700;7.306;2024-02-28T14:08:17;29.85;;;20.67;;
11187;SDS011;5650;52.700;7.306;2024-02-28T14:10:46;29.52;;;21.58;;
11187;SDS011;5650;52.700;7.306;2024-02-28T14:13:13;26.75;;;20.17;;
11187;SDS011;5650;52.700;7.306;2024-02-28T14:15:48;27.70;;;20.95;;
11187;SDS011;5650;52.700;7.306;2024-02-28T14:18:19;27.60;;;20.50;;
11187;SDS011;5650;52.700;7.306;2024-02-28T14:20:46;28.45;;;20.77;;
11187;SDS011;5650;52.700;7.306;2024-02-28T14:23:19;25.75;;;19.52;;
11187;SDS011;5650;52.700;7.306;2024-02-28T14:25:51;28.67;;;21.00;;
11187;SDS011;5650;52.700;7.306;2024-02-28T14:28:21;29.60;;;20.88;;
11187;SDS011;5650;52.700;7.306;2024-02-28T14:30:49;27.45;;;20.50;;
11187;SDS011;5650;52.700;7.306;2024-02-28T14:33:20;29.38;;;20.45;;
11187;SDS011;5650;52.700;7.306;2024-02-28T14:35:47;24.27;;;18.05;;
11187;SDS011;5650;52.700;7.306;2024-02-28T14:38:20;27.05;;;19.38;;
11187;SDS011;5650;52.700;7.306;2024-02-28T14:40:47;23.02;;;18.13;;
11187;SDS011;5650;52.700;7.306;2024-02-28T14:43:15;23.52;;;18.25;;
11187;SDS011;5650;52.700;7.306;2024-02-28T14:45:48;24.77;;;16.48;;
11187;SDS011;5650;52.700;7.306;2024-02-28T14:48:22;26.05;;;18.42;;
11187;SDS011;5650;52.700;7.306;2024-02-28T14:50:49;27.50;;;19.10;;
11187;SDS011;5650;52.700;7.306;2024-02-28T14:53:16;25.83;;;19.95;;